sensor_id;sensor_type;location;lat;lon;timestamp;temperature;humidity
2647;DHT22;1333;50.958;6.770;2023-06-19T00:02:16;20.60;99.90
2647;DHT22;1333;50.958;6.770;2023-06-19T00:04:42;20.60;99.90
2647;DHT22;1333;50.958;6.770;2023-06-19T00:07:07;20.70;99.90
2647;DHT22;1333;50.958;6.770;2023-06-19T00:09:33;20.70;99.90
2647;DHT22;1333;50.958;6.770;2023-06-19T00:11:59;20.70;99.90
2647;DHT22;1333;50.958;6.770;2023-06-19T00:14:25;20.70;99.90
2647;DHT22;1333;50.958;6.770;2023-06-19T00:16:51;20.70;99.90
2647;DHT22;1333;50.958;6.770;2023-06-19T00:19:17;20.80;99.90
2647;DHT22;1333;50.958;6.770;2023-06-19T00:21:43;20.80;99.90
2647;DHT22;1333;50.958;6.770;2023-06-19T00:24:09;20.80;99.90
2647;DHT22;1333;50.958;6.770;2023-06-19T00:26:35;20.70;99.90
2647;DHT22;1333;50.958;6.770;2023-06-19T00:29:00;20.70;99.90
2647;DHT22;1333;50.958;6.770;2023-06-19T00:31:26;20.70;99.90
2647;DHT22;1333;50.958;6.770;2023-06-19T00:33:53;20.70;99.90
2647;DHT22;1333;50.958;6.770;2023-06-19T00:36:18;20.60;99.90
2647;DHT22;1333;50.958;6.770;2023-06-19T00:38:46;20.60;99.90
2647;DHT22;1333;50.958;6.770;2023-06-19T00:41:12;20.60;99.90
2647;DHT22;1333;50.958;6.770;2023-06-19T00:43:37;20.50;99.90
2647;DHT22;1333;50.958;6.770;2023-06-19T00:46:04;20.50;99.90
2647;DHT22;1333;50.958;6.770;2023-06-19T00:48:30;20.50;99.90
2647;DHT22;1333;50.958;6.770;2023-06-19T00:50:57;20.50;99.90
2647;DHT22;1333;50.958;6.770;2023-06-19T00:53:23;20.50;99.90
2647;DHT22;1333;50.958;6.770;2023-06-19T00:55:50;20.60;99.90
2647;DHT22;1333;50.958;6.770;2023-06-19T00:58:17;20.70;99.90
2647;DHT22;1333;50.958;6.770;2023-06-19T01:00:43;20.70;99.90
2647;DHT22;1333;50.958;6.770;2023-06-19T01:03:08;20.70;99.90
2647;DHT22;1333;50.958;6.770;2023-06-19T01:05:34;20.80;99.90
2647;DHT22;1333;50.958;6.770;2023-06-19T01:08:13;20.80;99.90
2647;DHT22;1333;50.958;6.770;2023-06-19T01:10:43;20.70;99.90
2647;DHT22;1333;50.958;6.770;2023-06-19T01:13:21;20.70;99.90
2647;DHT22;1333;50.958;6.770;2023-06-19T01:15:49;20.70;99.90
2647;DHT22;1333;50.958;6.770;2023-06-19T01:18:16;20.60;99.90
2647;DHT22;1333;50.958;6.770;2023-06-19T01:20:42;20.60;99.90
2647;DHT22;1333;50.958;6.770;2023-06-19T01:23:08;20.50;99.90
2647;DHT22;1333;50.958;6.770;2023-06-19T01:25:34;20.50;99.90
2647;DHT22;1333;50.958;6.770;2023-06-19T01:28:01;20.40;99.90
2647;DHT22;1333;50.958;6.770;2023-06-19T01:30:29;20.30;99.90
2647;DHT22;1333;50.958;6.770;2023-06-19T01:33:14;20.40;99.90
2647;DHT22;1333;50.958;6.770;2023-06-19T01:35:42;20.40;99.90
2647;DHT22;1333;50.958;6.770;2023-06-19T01:38:08;20.40;99.90
2647;DHT22;1333;50.958;6.770;2023-06-19T01:40:35;20.40;99.90
2647;DHT22;1333;50.958;6.770;2023-06-19T01:43:02;20.40;99.90
2647;DHT22;1333;50.958;6.770;2023-06-19T01:45:30;20.30;99.90
2647;DHT22;1333;50.958;6.770;2023-06-19T01:47:56;20.30;99.90
2647;DHT22;1333;50.958;6.770;2023-06-19T01:50:23;20.30;99.90
2647;DHT22;1333;50.958;6.770;2023-06-19T01:52:49;20.30;99.90
2647;DHT22;1333;50.958;6.770;2023-06-19T01:55:17;20.40;99.90
2647;DHT22;1333;50.958;6.770;2023-06-19T01:57:43;20.40;99.90
2647;DHT22;1333;50.958;6.770;2023-06-19T02:00:11;20.40;99.90
2647;DHT22;1333;50.958;6.770;2023-06-19T02:02:37;20.40;99.90
2647;DHT22;1333;50.958;6.770;2023-06-19T02:05:03;20.40;99.90
2647;DHT22;1333;50.958;6.770;2023-06-19T02:07:28;20.50;99.90
2647;DHT22;1333;50.958;6.770;2023-06-19T02:09:54;20.50;99.90
2647;DHT22;1333;50.958;6.770;2023-06-19T02:12:19;20.60;99.90
2647;DHT22;1333;50.958;6.770;2023-06-19T02:14:45;20.70;99.90
2647;DHT22;1333;50.958;6.770;2023-06-19T02:17:10;20.70;99.90
2647;DHT22;1333;50.958;6.770;2023-06-19T02:19:36;20.80;99.90
2647;DHT22;1333;50.958;6.770;2023-06-19T02:22:02;20.90;99.90
2647;DHT22;1333;50.958;6.770;2023-06-19T02:24:27;21.00;99.90
2647;DHT22;1333;50.958;6.770;2023-06-19T02:26:53;21.00;99.90
2647;DHT22;1333;50.958;6.770;2023-06-19T02:29:18;21.10;99.90
2647;DHT22;1333;50.958;6.770;2023-06-19T02:31:44;21.20;99.90
2647;DHT22;1333;50.958;6.770;2023-06-19T02:34:10;21.20;99.90
2647;DHT22;1333;50.958;6.770;2023-06-19T02:36:35;21.20;99.90
2647;DHT22;1333;50.958;6.770;2023-06-19T02:39:05;21.30;99.90
2647;DHT22;1333;50.958;6.770;2023-06-19T02:41:33;21.30;99.90
2647;DHT22;1333;50.958;6.770;2023-06-19T02:43:58;21.30;99.90
2647;DHT22;1333;50.958;6.770;2023-06-19T02:46:24;21.20;99.90
2647;DHT22;1333;50.958;6.770;2023-06-19T02:48:50;21.30;99.90
2647;DHT22;1333;50.958;6.770;2023-06-19T02:51:15;21.20;99.90
2647;DHT22;1333;50.958;6.770;2023-06-19T02:53:41;21.20;99.90
2647;DHT22;1333;50.958;6.770;2023-06-19T02:56:07;21.10;99.90
2647;DHT22;1333;50.958;6.770;2023-06-19T02:58:33;21.10;99.90
2647;DHT22;1333;50.958;6.770;2023-06-19T03:01:00;21.10;99.90
2647;DHT22;1333;50.958;6.770;2023-06-19T03:03:25;21.10;99.90
2647;DHT22;1333;50.958;6.770;2023-06-19T03:05:51;21.00;99.90
2647;DHT22;1333;50.958;6.770;2023-06-19T03:08:17;21.00;99.90
2647;DHT22;1333;50.958;6.770;2023-06-19T03:10:42;21.00;99.90
2647;DHT22;1333;50.958;6.770;2023-06-19T03:13:08;20.90;99.90
2647;DHT22;1333;50.958;6.770;2023-06-19T03:15:36;20.80;99.90
2647;DHT22;1333;50.958;6.770;2023-06-19T03:18:01;20.70;99.90
2647;DHT22;1333;50.958;6.770;2023-06-19T03:20:29;20.70;99.90
2647;DHT22;1333;50.958;6.770;2023-06-19T03:22:55;20.70;99.90
2647;DHT22;1333;50.958;6.770;2023-06-19T03:25:20;20.70;99.90
2647;DHT22;1333;50.958;6.770;2023-06-19T03:27:46;20.70;99.90
2647;DHT22;1333;50.958;6.770;2023-06-19T03:30:12;20.60;99.90
2647;DHT22;1333;50.958;6.770;2023-06-19T03:32:38;20.60;99.90
2647;DHT22;1333;50.958;6.770;2023-06-19T03:35:04;20.60;99.90
2647;DHT22;1333;50.958;6.770;2023-06-19T03:37:30;20.60;99.90
2647;DHT22;1333;50.958;6.770;2023-06-19T03:39:57;20.70;99.90
2647;DHT22;1333;50.958;6.770;2023-06-19T03:42:23;20.60;99.90
2647;DHT22;1333;50.958;6.770;2023-06-19T03:44:48;20.60;99.90
2647;DHT22;1333;50.958;6.770;2023-06-19T03:47:14;20.50;99.90
2647;DHT22;1333;50.958;6.770;2023-06-19T03:49:40;20.50;99.90
2647;DHT22;1333;50.958;6.770;2023-06-19T03:52:05;20.50;99.90
2647;DHT22;1333;50.958;6.770;2023-06-19T03:54:31;20.50;99.90
2647;DHT22;1333;50.958;6.770;2023-06-19T03:56:56;20.40;99.90
2647;DHT22;1333;50.958;6.770;2023-06-19T03:59:22;20.50;99.90
2647;DHT22;1333;50.958;6.770;2023-06-19T04:01:47;20.40;99.90
2647;DHT22;1333;50.958;6.770;2023-06-19T04:04:13;20.30;99.90
2647;DHT22;1333;50.958;6.770;2023-06-19T04:06:38;20.30;99.90
2647;DHT22;1333;50.958;6.770;2023-06-19T04:09:04;20.30;99.90
2647;DHT22;1333;50.958;6.770;2023-06-19T04:11:30;20.30;99.90
2647;DHT22;1333;50.958;6.770;2023-06-19T04:13:55;20.30;99.90
2647;DHT22;1333;50.958;6.770;2023-06-19T04:16:21;20.30;99.90
2647;DHT22;1333;50.958;6.770;2023-06-19T04:18:46;20.30;99.90
2647;DHT22;1333;50.958;6.770;2023-06-19T04:21:12;20.30;99.90
2647;DHT22;1333;50.958;6.770;2023-06-19T04:23:37;20.50;99.90
2647;DHT22;1333;50.958;6.770;2023-06-19T04:26:03;20.50;99.90
2647;DHT22;1333;50.958;6.770;2023-06-19T04:28:29;20.50;99.90
2647;DHT22;1333;50.958;6.770;2023-06-19T04:30:54;20.50;99.90
2647;DHT22;1333;50.958;6.770;2023-06-19T04:33:27;20.50;99.90
2647;DHT22;1333;50.958;6.770;2023-06-19T04:35:53;20.50;99.90
2647;DHT22;1333;50.958;6.770;2023-06-19T04:38:18;20.50;99.90
2647;DHT22;1333;50.958;6.770;2023-06-19T04:40:44;20.50;99.90
2647;DHT22;1333;50.958;6.770;2023-06-19T04:43:09;20.40;99.90
2647;DHT22;1333;50.958;6.770;2023-06-19T04:45:38;20.50;99.90
2647;DHT22;1333;50.958;6.770;2023-06-19T04:48:04;20.50;99.90
2647;DHT22;1333;50.958;6.770;2023-06-19T04:50:29;20.50;99.90
2647;DHT22;1333;50.958;6.770;2023-06-19T04:52:55;20.40;99.90
2647;DHT22;1333;50.958;6.770;2023-06-19T04:55:20;20.50;99.90
2647;DHT22;1333;50.958;6.770;2023-06-19T04:57:46;20.60;99.90
2647;DHT22;1333;50.958;6.770;2023-06-19T05:00:12;20.50;99.90
2647;DHT22;1333;50.958;6.770;2023-06-19T05:02:39;20.60;99.90
2647;DHT22;1333;50.958;6.770;2023-06-19T05:05:09;20.60;99.90
2647;DHT22;1333;50.958;6.770;2023-06-19T05:07:34;20.70;99.90
2647;DHT22;1333;50.958;6.770;2023-06-19T05:10:00;20.70;99.90
2647;DHT22;1333;50.958;6.770;2023-06-19T05:12:25;20.80;99.90
2647;DHT22;1333;50.958;6.770;2023-06-19T05:14:51;20.80;99.90
2647;DHT22;1333;50.958;6.770;2023-06-19T05:17:16;20.90;99.90
2647;DHT22;1333;50.958;6.770;2023-06-19T05:19:42;20.90;99.90
2647;DHT22;1333;50.958;6.770;2023-06-19T05:22:07;20.90;99.90
2647;DHT22;1333;50.958;6.770;2023-06-19T05:24:33;21.00;99.90
2647;DHT22;1333;50.958;6.770;2023-06-19T05:26:59;21.30;99.90
2647;DHT22;1333;50.958;6.770;2023-06-19T05:29:24;21.60;99.90
2647;DHT22;1333;50.958;6.770;2023-06-19T05:31:52;21.80;99.90
2647;DHT22;1333;50.958;6.770;2023-06-19T05:34:17;22.00;99.90
2647;DHT22;1333;50.958;6.770;2023-06-19T05:36:43;22.10;99.90
2647;DHT22;1333;50.958;6.770;2023-06-19T05:39:11;22.30;99.90
2647;DHT22;1333;50.958;6.770;2023-06-19T05:41:37;22.40;99.90
2647;DHT22;1333;50.958;6.770;2023-06-19T05:44:02;22.60;99.90
2647;DHT22;1333;50.958;6.770;2023-06-19T05:46:28;22.60;99.90
2647;DHT22;1333;50.958;6.770;2023-06-19T05:48:53;22.60;99.90
2647;DHT22;1333;50.958;6.770;2023-06-19T05:51:20;22.70;99.90
2647;DHT22;1333;50.958;6.770;2023-06-19T05:53:45;22.50;99.90
2647;DHT22;1333;50.958;6.770;2023-06-19T05:56:12;22.70;99.90
2647;DHT22;1333;50.958;6.770;2023-06-19T05:58:37;22.80;99.90
2647;DHT22;1333;50.958;6.770;2023-06-19T06:01:04;22.90;99.90
2647;DHT22;1333;50.958;6.770;2023-06-19T06:03:30;23.10;99.90
2647;DHT22;1333;50.958;6.770;2023-06-19T06:05:56;23.20;99.90
2647;DHT22;1333;50.958;6.770;2023-06-19T06:08:30;23.20;99.90
2647;DHT22;1333;50.958;6.770;2023-06-19T06:10:56;23.30;99.90
2647;DHT22;1333;50.958;6.770;2023-06-19T06:13:22;23.40;99.90
2647;DHT22;1333;50.958;6.770;2023-06-19T06:15:47;23.60;99.90
2647;DHT22;1333;50.958;6.770;2023-06-19T06:18:13;24.20;99.90
2647;DHT22;1333;50.958;6.770;2023-06-19T06:20:38;24.70;99.90
2647;DHT22;1333;50.958;6.770;2023-06-19T06:23:04;25.00;99.90
2647;DHT22;1333;50.958;6.770;2023-06-19T06:25:29;25.40;99.90
2647;DHT22;1333;50.958;6.770;2023-06-19T06:27:55;25.60;99.90
2647;DHT22;1333;50.958;6.770;2023-06-19T06:30:21;25.80;99.90
2647;DHT22;1333;50.958;6.770;2023-06-19T06:32:46;26.30;99.90
2647;DHT22;1333;50.958;6.770;2023-06-19T06:35:12;27.10;99.90
2647;DHT22;1333;50.958;6.770;2023-06-19T06:37:38;27.90;99.90
2647;DHT22;1333;50.958;6.770;2023-06-19T06:40:04;29.00;99.90
2647;DHT22;1333;50.958;6.770;2023-06-19T06:42:34;29.60;99.90
2647;DHT22;1333;50.958;6.770;2023-06-19T06:44:59;29.90;97.60
2647;DHT22;1333;50.958;6.770;2023-06-19T06:47:25;29.80;93.10
2647;DHT22;1333;50.958;6.770;2023-06-19T06:49:50;29.40;91.30
2647;DHT22;1333;50.958;6.770;2023-06-19T06:52:16;29.60;90.10
2647;DHT22;1333;50.958;6.770;2023-06-19T06:54:41;29.40;88.30
2647;DHT22;1333;50.958;6.770;2023-06-19T06:57:07;29.00;90.00
2647;DHT22;1333;50.958;6.770;2023-06-19T06:59:32;28.60;87.70
2647;DHT22;1333;50.958;6.770;2023-06-19T07:01:58;28.10;90.50
2647;DHT22;1333;50.958;6.770;2023-06-19T07:04:23;27.90;91.90
2647;DHT22;1333;50.958;6.770;2023-06-19T07:06:49;27.70;92.60
2647;DHT22;1333;50.958;6.770;2023-06-19T07:09:15;27.80;93.40
2647;DHT22;1333;50.958;6.770;2023-06-19T07:11:40;28.10;93.40
2647;DHT22;1333;50.958;6.770;2023-06-19T07:14:06;28.30;92.50
2647;DHT22;1333;50.958;6.770;2023-06-19T07:16:31;28.00;92.10
2647;DHT22;1333;50.958;6.770;2023-06-19T07:18:57;27.80;93.20
2647;DHT22;1333;50.958;6.770;2023-06-19T07:21:22;27.50;94.00
2647;DHT22;1333;50.958;6.770;2023-06-19T07:23:48;27.40;95.20
2647;DHT22;1333;50.958;6.770;2023-06-19T07:26:14;27.50;96.00
2647;DHT22;1333;50.958;6.770;2023-06-19T07:28:41;27.30;95.70
2647;DHT22;1333;50.958;6.770;2023-06-19T07:31:06;27.30;96.40
2647;DHT22;1333;50.958;6.770;2023-06-19T07:33:32;27.40;97.20
2647;DHT22;1333;50.958;6.770;2023-06-19T07:35:58;27.40;96.80
2647;DHT22;1333;50.958;6.770;2023-06-19T07:38:24;27.10;97.20
2647;DHT22;1333;50.958;6.770;2023-06-19T07:40:49;26.80;98.40
2647;DHT22;1333;50.958;6.770;2023-06-19T07:43:15;26.90;99.40
2647;DHT22;1333;50.958;6.770;2023-06-19T07:45:40;27.10;99.90
2647;DHT22;1333;50.958;6.770;2023-06-19T07:48:06;27.40;99.90
2647;DHT22;1333;50.958;6.770;2023-06-19T07:50:31;27.70;98.90
2647;DHT22;1333;50.958;6.770;2023-06-19T07:52:59;28.00;98.60
2647;DHT22;1333;50.958;6.770;2023-06-19T07:55:25;28.00;97.40
2647;DHT22;1333;50.958;6.770;2023-06-19T07:57:50;28.00;97.10
2647;DHT22;1333;50.958;6.770;2023-06-19T08:00:17;27.90;96.60
2647;DHT22;1333;50.958;6.770;2023-06-19T08:02:43;27.60;96.70
2647;DHT22;1333;50.958;6.770;2023-06-19T08:05:10;27.60;97.90
2647;DHT22;1333;50.958;6.770;2023-06-19T08:07:36;27.10;97.90
2647;DHT22;1333;50.958;6.770;2023-06-19T08:10:02;27.00;98.90
2647;DHT22;1333;50.958;6.770;2023-06-19T08:12:29;26.80;99.80
2647;DHT22;1333;50.958;6.770;2023-06-19T08:14:55;26.90;99.90
2647;DHT22;1333;50.958;6.770;2023-06-19T08:17:20;27.10;99.90
2647;DHT22;1333;50.958;6.770;2023-06-19T08:19:46;27.10;99.90
2647;DHT22;1333;50.958;6.770;2023-06-19T08:22:12;27.90;99.70
2647;DHT22;1333;50.958;6.770;2023-06-19T08:24:37;29.30;96.60
2647;DHT22;1333;50.958;6.770;2023-06-19T08:27:05;31.50;94.80
2647;DHT22;1333;50.958;6.770;2023-06-19T08:29:31;33.90;85.50
2647;DHT22;1333;50.958;6.770;2023-06-19T08:31:56;34.90;63.70
2647;DHT22;1333;50.958;6.770;2023-06-19T08:34:22;35.60;55.80
2647;DHT22;1333;50.958;6.770;2023-06-19T08:36:48;36.00;54.00
2647;DHT22;1333;50.958;6.770;2023-06-19T08:39:13;36.10;50.10
2647;DHT22;1333;50.958;6.770;2023-06-19T08:41:39;36.20;50.70
2647;DHT22;1333;50.958;6.770;2023-06-19T08:44:06;37.20;50.20
2647;DHT22;1333;50.958;6.770;2023-06-19T08:46:32;37.40;45.60
2647;DHT22;1333;50.958;6.770;2023-06-19T08:48:59;37.70;44.70
2647;DHT22;1333;50.958;6.770;2023-06-19T08:51:27;37.60;44.10
2647;DHT22;1333;50.958;6.770;2023-06-19T08:54:01;37.90;43.00
2647;DHT22;1333;50.958;6.770;2023-06-19T08:56:28;38.60;44.10
2647;DHT22;1333;50.958;6.770;2023-06-19T08:58:54;40.10;42.40
2647;DHT22;1333;50.958;6.770;2023-06-19T09:01:20;40.80;39.00
2647;DHT22;1333;50.958;6.770;2023-06-19T09:03:46;41.50;39.40
2647;DHT22;1333;50.958;6.770;2023-06-19T09:06:15;41.60;38.00
2647;DHT22;1333;50.958;6.770;2023-06-19T09:08:41;41.10;34.90
2647;DHT22;1333;50.958;6.770;2023-06-19T09:11:07;41.70;36.10
2647;DHT22;1333;50.958;6.770;2023-06-19T09:13:32;41.20;34.40
2647;DHT22;1333;50.958;6.770;2023-06-19T09:16:08;40.80;34.00
2647;DHT22;1333;50.958;6.770;2023-06-19T09:18:45;40.40;33.90
2647;DHT22;1333;50.958;6.770;2023-06-19T09:21:21;40.00;35.60
2647;DHT22;1333;50.958;6.770;2023-06-19T09:23:50;40.00;34.90
2647;DHT22;1333;50.958;6.770;2023-06-19T09:26:17;40.10;34.70
2647;DHT22;1333;50.958;6.770;2023-06-19T09:28:44;40.10;35.00
2647;DHT22;1333;50.958;6.770;2023-06-19T09:31:11;39.60;35.10
2647;DHT22;1333;50.958;6.770;2023-06-19T09:33:38;39.20;35.50
2647;DHT22;1333;50.958;6.770;2023-06-19T09:36:05;39.70;36.10
2647;DHT22;1333;50.958;6.770;2023-06-19T09:38:36;40.30;35.50
2647;DHT22;1333;50.958;6.770;2023-06-19T09:41:05;40.00;34.70
2647;DHT22;1333;50.958;6.770;2023-06-19T09:43:37;39.80;34.10
2647;DHT22;1333;50.958;6.770;2023-06-19T09:46:03;40.60;33.60
2647;DHT22;1333;50.958;6.770;2023-06-19T09:48:31;41.70;32.30
2647;DHT22;1333;50.958;6.770;2023-06-19T09:51:18;42.20;32.60
2647;DHT22;1333;50.958;6.770;2023-06-19T09:53:48;44.40;32.30
2647;DHT22;1333;50.958;6.770;2023-06-19T09:56:15;46.20;30.80
2647;DHT22;1333;50.958;6.770;2023-06-19T09:58:43;45.90;27.80
2647;DHT22;1333;50.958;6.770;2023-06-19T10:01:08;45.30;28.90
2647;DHT22;1333;50.958;6.770;2023-06-19T10:03:35;45.10;27.90
2647;DHT22;1333;50.958;6.770;2023-06-19T10:06:03;44.70;28.20
2647;DHT22;1333;50.958;6.770;2023-06-19T10:08:39;45.00;28.50
2647;DHT22;1333;50.958;6.770;2023-06-19T10:11:05;44.90;28.00
2647;DHT22;1333;50.958;6.770;2023-06-19T10:13:32;44.90;28.80
2647;DHT22;1333;50.958;6.770;2023-06-19T10:15:59;46.20;28.70
2647;DHT22;1333;50.958;6.770;2023-06-19T10:18:25;47.70;28.20
2647;DHT22;1333;50.958;6.770;2023-06-19T10:20:53;48.80;26.90
2647;DHT22;1333;50.958;6.770;2023-06-19T10:23:23;48.80;25.90
2647;DHT22;1333;50.958;6.770;2023-06-19T10:25:57;48.20;25.20
2647;DHT22;1333;50.958;6.770;2023-06-19T10:28:32;48.90;26.10
2647;DHT22;1333;50.958;6.770;2023-06-19T10:31:03;49.40;25.20
2647;DHT22;1333;50.958;6.770;2023-06-19T10:33:31;49.20;24.10
2647;DHT22;1333;50.958;6.770;2023-06-19T10:36:01;47.40;23.80
2647;DHT22;1333;50.958;6.770;2023-06-19T10:38:28;47.10;24.70
2647;DHT22;1333;50.958;6.770;2023-06-19T10:40:53;46.40;24.90
2647;DHT22;1333;50.958;6.770;2023-06-19T10:43:20;45.50;25.40
2647;DHT22;1333;50.958;6.770;2023-06-19T10:45:47;46.30;26.30
2647;DHT22;1333;50.958;6.770;2023-06-19T10:48:19;47.50;26.20
2647;DHT22;1333;50.958;6.770;2023-06-19T10:50:45;48.30;24.70
2647;DHT22;1333;50.958;6.770;2023-06-19T10:53:10;47.20;24.00
2647;DHT22;1333;50.958;6.770;2023-06-19T10:55:36;46.50;24.90
2647;DHT22;1333;50.958;6.770;2023-06-19T10:58:01;45.80;25.20
2647;DHT22;1333;50.958;6.770;2023-06-19T11:00:28;44.30;25.70
2647;DHT22;1333;50.958;6.770;2023-06-19T11:02:56;43.30;25.30
2647;DHT22;1333;50.958;6.770;2023-06-19T11:05:23;43.00;26.10
2647;DHT22;1333;50.958;6.770;2023-06-19T11:07:57;42.30;26.50
2647;DHT22;1333;50.958;6.770;2023-06-19T11:10:25;43.80;28.10
2647;DHT22;1333;50.958;6.770;2023-06-19T11:12:56;45.90;27.70
2647;DHT22;1333;50.958;6.770;2023-06-19T11:15:32;46.90;25.90
2647;DHT22;1333;50.958;6.770;2023-06-19T11:17:59;47.00;25.70
2647;DHT22;1333;50.958;6.770;2023-06-19T11:20:25;48.00;25.50
2647;DHT22;1333;50.958;6.770;2023-06-19T11:22:59;49.00;24.40
2647;DHT22;1333;50.958;6.770;2023-06-19T11:25:38;49.60;23.60
2647;DHT22;1333;50.958;6.770;2023-06-19T11:28:05;49.80;22.60
2647;DHT22;1333;50.958;6.770;2023-06-19T11:30:35;49.80;22.90
2647;DHT22;1333;50.958;6.770;2023-06-19T11:33:01;48.60;23.20
2647;DHT22;1333;50.958;6.770;2023-06-19T11:35:33;49.40;24.00
2647;DHT22;1333;50.958;6.770;2023-06-19T11:38:02;50.70;24.00
2647;DHT22;1333;50.958;6.770;2023-06-19T11:40:27;52.20;23.60
2647;DHT22;1333;50.958;6.770;2023-06-19T11:42:55;53.70;22.80
2647;DHT22;1333;50.958;6.770;2023-06-19T11:45:21;54.90;22.40
2647;DHT22;1333;50.958;6.770;2023-06-19T11:47:46;55.00;20.20
2647;DHT22;1333;50.958;6.770;2023-06-19T11:50:14;54.20;20.30
2647;DHT22;1333;50.958;6.770;2023-06-19T11:52:43;54.30;21.00
2647;DHT22;1333;50.958;6.770;2023-06-19T11:55:09;54.50;21.20
2647;DHT22;1333;50.958;6.770;2023-06-19T11:57:34;54.80;21.10
2647;DHT22;1333;50.958;6.770;2023-06-19T12:00:00;55.10;20.90
2647;DHT22;1333;50.958;6.770;2023-06-19T12:02:26;55.40;20.90
2647;DHT22;1333;50.958;6.770;2023-06-19T12:04:51;55.40;19.60
2647;DHT22;1333;50.958;6.770;2023-06-19T12:07:17;55.40;20.40
2647;DHT22;1333;50.958;6.770;2023-06-19T12:09:43;55.60;20.80
2647;DHT22;1333;50.958;6.770;2023-06-19T12:12:09;56.00;20.20
2647;DHT22;1333;50.958;6.770;2023-06-19T12:14:35;56.20;20.20
2647;DHT22;1333;50.958;6.770;2023-06-19T12:17:00;56.60;20.00
2647;DHT22;1333;50.958;6.770;2023-06-19T12:19:26;56.00;18.90
2647;DHT22;1333;50.958;6.770;2023-06-19T12:21:53;55.20;19.60
2647;DHT22;1333;50.958;6.770;2023-06-19T12:24:18;54.60;19.10
2647;DHT22;1333;50.958;6.770;2023-06-19T12:26:44;54.40;19.50
2647;DHT22;1333;50.958;6.770;2023-06-19T12:29:10;53.40;19.50
2647;DHT22;1333;50.958;6.770;2023-06-19T12:31:36;52.70;20.10
2647;DHT22;1333;50.958;6.770;2023-06-19T12:34:02;52.30;20.70
2647;DHT22;1333;50.958;6.770;2023-06-19T12:36:28;52.00;21.10
2647;DHT22;1333;50.958;6.770;2023-06-19T12:38:54;51.40;21.30
2647;DHT22;1333;50.958;6.770;2023-06-19T12:41:20;51.00;20.90
2647;DHT22;1333;50.958;6.770;2023-06-19T12:43:46;50.70;21.70
2647;DHT22;1333;50.958;6.770;2023-06-19T12:46:12;49.90;21.60
2647;DHT22;1333;50.958;6.770;2023-06-19T12:48:37;48.80;21.70
2647;DHT22;1333;50.958;6.770;2023-06-19T12:51:03;47.60;22.20
2647;DHT22;1333;50.958;6.770;2023-06-19T12:53:28;46.60;23.10
2647;DHT22;1333;50.958;6.770;2023-06-19T12:55:58;45.90;23.70
2647;DHT22;1333;50.958;6.770;2023-06-19T12:58:24;45.20;24.30
2647;DHT22;1333;50.958;6.770;2023-06-19T13:00:50;44.50;24.90
2647;DHT22;1333;50.958;6.770;2023-06-19T13:03:16;43.80;24.80
2647;DHT22;1333;50.958;6.770;2023-06-19T13:05:41;43.20;25.30
2647;DHT22;1333;50.958;6.770;2023-06-19T13:08:07;42.00;24.40
2647;DHT22;1333;50.958;6.770;2023-06-19T13:10:33;41.20;25.20
2647;DHT22;1333;50.958;6.770;2023-06-19T13:12:58;41.00;26.60
2647;DHT22;1333;50.958;6.770;2023-06-19T13:15:24;40.90;27.10
2647;DHT22;1333;50.958;6.770;2023-06-19T13:17:50;40.60;27.10
2647;DHT22;1333;50.958;6.770;2023-06-19T13:20:16;40.50;27.10
2647;DHT22;1333;50.958;6.770;2023-06-19T13:22:41;40.00;26.90
2647;DHT22;1333;50.958;6.770;2023-06-19T13:25:07;39.60;26.80
2647;DHT22;1333;50.958;6.770;2023-06-19T13:27:33;39.20;27.40
2647;DHT22;1333;50.958;6.770;2023-06-19T13:30:00;38.60;28.50
2647;DHT22;1333;50.958;6.770;2023-06-19T13:32:27;38.20;28.90
2647;DHT22;1333;50.958;6.770;2023-06-19T13:34:52;38.20;30.00
2647;DHT22;1333;50.958;6.770;2023-06-19T13:37:18;38.10;30.20
2647;DHT22;1333;50.958;6.770;2023-06-19T13:39:44;38.10;30.50
2647;DHT22;1333;50.958;6.770;2023-06-19T13:42:09;37.90;30.80
2647;DHT22;1333;50.958;6.770;2023-06-19T13:44:36;37.90;30.70
2647;DHT22;1333;50.958;6.770;2023-06-19T13:47:02;37.80;31.20
2647;DHT22;1333;50.958;6.770;2023-06-19T13:49:27;37.70;31.70
2647;DHT22;1333;50.958;6.770;2023-06-19T13:51:53;37.60;30.50
2647;DHT22;1333;50.958;6.770;2023-06-19T13:54:19;37.50;30.50
2647;DHT22;1333;50.958;6.770;2023-06-19T13:56:46;37.10;29.60
2647;DHT22;1333;50.958;6.770;2023-06-19T13:59:12;36.70;30.00
2647;DHT22;1333;50.958;6.770;2023-06-19T14:01:38;36.20;30.90
2647;DHT22;1333;50.958;6.770;2023-06-19T14:04:04;36.00;31.90
2647;DHT22;1333;50.958;6.770;2023-06-19T14:06:30;35.80;32.10
2647;DHT22;1333;50.958;6.770;2023-06-19T14:08:55;35.50;32.50
2647;DHT22;1333;50.958;6.770;2023-06-19T14:11:21;35.20;31.70
2647;DHT22;1333;50.958;6.770;2023-06-19T14:13:47;35.00;32.50
2647;DHT22;1333;50.958;6.770;2023-06-19T14:16:12;34.60;33.50
2647;DHT22;1333;50.958;6.770;2023-06-19T14:18:38;34.40;33.90
2647;DHT22;1333;50.958;6.770;2023-06-19T14:21:03;34.40;34.00
2647;DHT22;1333;50.958;6.770;2023-06-19T14:23:29;34.30;34.50
2647;DHT22;1333;50.958;6.770;2023-06-19T14:25:54;34.20;34.80
2647;DHT22;1333;50.958;6.770;2023-06-19T14:28:20;34.20;35.50
2647;DHT22;1333;50.958;6.770;2023-06-19T14:30:46;34.30;35.50
2647;DHT22;1333;50.958;6.770;2023-06-19T14:33:11;34.30;35.70
2647;DHT22;1333;50.958;6.770;2023-06-19T14:35:41;34.30;35.40
2647;DHT22;1333;50.958;6.770;2023-06-19T14:38:07;34.30;35.00
2647;DHT22;1333;50.958;6.770;2023-06-19T14:40:33;34.30;34.80
2647;DHT22;1333;50.958;6.770;2023-06-19T14:42:58;34.20;34.90
2647;DHT22;1333;50.958;6.770;2023-06-19T14:45:24;34.20;35.00
2647;DHT22;1333;50.958;6.770;2023-06-19T14:47:49;34.20;35.10
2647;DHT22;1333;50.958;6.770;2023-06-19T14:50:15;34.10;35.00
2647;DHT22;1333;50.958;6.770;2023-06-19T14:52:41;34.10;35.00
2647;DHT22;1333;50.958;6.770;2023-06-19T14:55:06;33.90;35.00
2647;DHT22;1333;50.958;6.770;2023-06-19T14:57:32;33.60;34.80
2647;DHT22;1333;50.958;6.770;2023-06-19T14:59:57;33.50;35.50
2647;DHT22;1333;50.958;6.770;2023-06-19T15:02:23;33.40;36.60
2647;DHT22;1333;50.958;6.770;2023-06-19T15:04:48;33.40;36.10
2647;DHT22;1333;50.958;6.770;2023-06-19T15:07:14;33.30;36.10
2647;DHT22;1333;50.958;6.770;2023-06-19T15:09:39;33.30;36.90
2647;DHT22;1333;50.958;6.770;2023-06-19T15:12:05;33.30;36.50
2647;DHT22;1333;50.958;6.770;2023-06-19T15:14:31;33.20;36.20
2647;DHT22;1333;50.958;6.770;2023-06-19T15:16:58;33.20;36.30
2647;DHT22;1333;50.958;6.770;2023-06-19T15:19:24;33.10;36.50
2647;DHT22;1333;50.958;6.770;2023-06-19T15:21:49;33.10;36.60
2647;DHT22;1333;50.958;6.770;2023-06-19T15:24:15;33.10;36.70
2647;DHT22;1333;50.958;6.770;2023-06-19T15:26:40;32.90;35.40
2647;DHT22;1333;50.958;6.770;2023-06-19T15:29:06;32.60;36.00
2647;DHT22;1333;50.958;6.770;2023-06-19T15:31:32;32.10;36.00
2647;DHT22;1333;50.958;6.770;2023-06-19T15:33:57;31.90;36.70
2647;DHT22;1333;50.958;6.770;2023-06-19T15:36:23;31.90;37.50
2647;DHT22;1333;50.958;6.770;2023-06-19T15:38:48;31.90;37.60
2647;DHT22;1333;50.958;6.770;2023-06-19T15:41:14;31.90;37.80
2647;DHT22;1333;50.958;6.770;2023-06-19T15:43:41;32.00;38.30
2647;DHT22;1333;50.958;6.770;2023-06-19T15:46:06;31.90;38.50
2647;DHT22;1333;50.958;6.770;2023-06-19T15:48:34;31.90;38.70
2647;DHT22;1333;50.958;6.770;2023-06-19T15:50:59;32.00;39.40
2647;DHT22;1333;50.958;6.770;2023-06-19T15:53:25;32.00;39.50
2647;DHT22;1333;50.958;6.770;2023-06-19T15:55:50;32.00;39.40
2647;DHT22;1333;50.958;6.770;2023-06-19T15:58:16;31.90;39.10